Time;durP1;ratioP1;P1;durP2;ratioP2;P2;SDS_P1;SDS_P2;PMS_P1;PMS_P2;Temp;Humidity;BMP_temperature;BMP_pressure;BME280_temperature;BME280_humidity;BME280_pressure;Samples;Min_cycle;Max_cycle;Signal;HPM_P1;HPM_P2
2022/06/29 00:01:24;;;;;;;1.80;1.70;;;;;;;15.58;66.20;101343.09;1650606;85;39150;-77
2022/06/29 00:03:51;;;;;;;;;;;;;;;15.52;66.18;101341.45;1672125;85;21688;-77
2022/06/29 00:06:19;;;;;;;2.22;2.02;;;;;;;15.46;66.45;101339.00;1650733;85;20157;-78
2022/06/29 00:08:46;;;;;;;2.35;1.77;;;;;;;15.39;66.22;101341.34;1655635;85;21593;-78
2022/06/29 00:11:12;;;;;;;1.92;1.82;;;;;;;15.33;66.20;101335.83;1649561;85;21581;-78
2022/06/29 00:13:38;;;;;;;2.23;2.03;;;;;;;15.31;66.31;101332.84;1653626;86;21520;-78
2022/06/29 00:16:05;;;;;;;3.57;2.43;;;;;;;15.29;66.25;101326.38;1667310;85;21525;-78
2022/06/29 00:18:31;;;;;;;2.55;2.35;;;;;;;15.30;66.36;101318.97;1666206;85;21718;-79
2022/06/29 00:20:58;;;;;;;2.67;2.47;;;;;;;15.23;66.24;101312.19;1640699;86;21041;-79
2022/06/29 00:23:24;;;;;;;2.37;2.20;;;;;;;15.15;66.37;101308.46;1647701;85;21565;-79
2022/06/29 00:25:51;;;;;;;2.87;2.00;;;;;;;15.09;66.36;101299.94;1644659;86;21651;-78
2022/06/29 00:28:17;;;;;;;2.27;1.95;;;;;;;15.05;66.41;101299.62;1648490;85;21141;-78
2022/06/29 00:30:43;;;;;;;3.00;2.42;;;;;;;15.03;66.43;101295.76;1641458;86;21458;-78
2022/06/29 00:33:10;;;;;;;4.13;2.63;;;;;;;15.00;66.50;101297.58;1641754;87;21953;-78
2022/06/29 00:35:36;;;;;;;2.20;2.00;;;;;;;15.01;66.48;101293.63;1637270;86;21268;-78
2022/06/29 00:38:03;;;;;;;2.83;2.50;;;;;;;15.02;66.49;101294.05;1640715;86;21574;-78
2022/06/29 00:40:30;;;;;;;2.67;2.47;;;;;;;15.07;66.57;101286.98;1637404;86;21113;-78
2022/06/29 00:42:56;;;;;;;2.40;2.20;;;;;;;15.09;66.51;101286.46;1654412;86;21037;-79
2022/06/29 00:45:22;;;;;;;2.50;2.30;;;;;;;15.09;66.50;101283.00;1656297;85;21978;-78
2022/06/29 00:47:48;;;;;;;2.52;2.22;;;;;;;15.00;66.34;101280.65;1652329;86;21390;-78
2022/06/29 00:50:15;;;;;;;4.30;2.60;;;;;;;14.93;66.45;101280.38;1666745;85;21480;-78
2022/06/29 00:52:43;;;;;;;3.40;3.10;;;;;;;14.89;66.48;101278.29;1640850;85;21069;-78
2022/06/29 00:55:18;;;;;;;2.67;2.47;;;;;;;14.89;66.52;101277.84;1642730;86;21486;-78
2022/06/29 00:57:47;;;;;;;2.72;2.40;;;;;;;14.89;66.39;101283.05;1634341;86;20970;-78
2022/06/29 01:00:16;;;;;;;3.45;2.62;;;;;;;14.82;66.44;101281.48;1640762;86;21525;-78
2022/06/29 01:02:42;;;;;;;;;;;;;;;14.77;66.35;101285.94;1643445;86;21777;-78
2022/06/29 01:05:09;;;;;;;2.75;2.30;;;;;;;14.70;66.69;101284.80;1641309;86;20147;-78
2022/06/29 01:07:38;;;;;;;2.62;2.42;;;;;;;14.68;66.51;101282.67;1641519;86;21656;-78
2022/06/29 01:10:05;;;;;;;2.98;2.55;;;;;;;14.65;66.50;101282.74;1641695;86;23264;-78
2022/06/29 01:12:32;;;;;;;3.20;2.85;;;;;;;14.62;66.39;101283.67;1642873;86;21423;-78
2022/06/29 01:15:11;;;;;;;2.08;1.85;;;;;;;14.58;66.39;101282.02;1643075;85;21411;-78
2022/06/29 01:17:37;;;;;;;3.70;2.20;;;;;;;14.49;66.48;101277.91;1642010;86;21570;-78
2022/06/29 01:20:04;;;;;;;3.87;2.93;;;;;;;14.48;66.57;101275.33;1646860;86;21474;-78
2022/06/29 01:22:32;;;;;;;3.83;3.52;;;;;;;14.47;66.60;101269.72;1645956;85;21427;-78
2022/06/29 01:24:58;;;;;;;3.87;3.57;;;;;;;14.47;66.64;101269.72;1643504;87;21518;-78
2022/06/29 01:27:24;;;;;;;5.20;3.97;;;;;;;14.47;66.60;101268.42;1642927;85;21395;-78
2022/06/29 01:30:07;;;;;;;5.72;3.70;;;;;;;14.40;66.60;101272.00;1638087;86;21389;-78
2022/06/29 01:32:34;;;;;;;5.05;4.25;;;;;;;14.36;66.60;101275.11;1641989;87;21551;-78
2022/06/29 01:35:00;;;;;;;8.05;2.85;;;;;;;14.36;66.66;101282.06;1646167;85;20946;-78
2022/06/29 01:37:27;;;;;;;5.08;4.05;;;;;;;14.32;66.61;101290.38;1642730;86;20950;-78
2022/06/29 01:39:53;;;;;;;3.73;3.43;;;;;;;14.31;66.62;101291.70;1643411;86;21380;-78
2022/06/29 01:42:19;;;;;;;5.53;4.83;;;;;;;14.28;66.65;101298.27;1642222;87;21526;-78
2022/06/29 01:44:47;;;;;;;4.37;3.33;;;;;;;14.27;66.73;101298.72;1634279;85;21018;-78
2022/06/29 01:47:13;;;;;;;4.80;4.30;;;;;;;14.29;66.71;101285.23;1641015;86;21673;-77
2022/06/29 01:49:39;;;;;;;4.97;4.58;;;;;;;14.26;66.55;101285.30;1641468;85;21069;-77
2022/06/29 01:52:06;;;;;;;4.17;3.77;;;;;;;14.12;66.60;101288.61;1645746;86;21077;-77
2022/06/29 01:54:32;;;;;;;5.42;3.72;;;;;;;14.03;66.71;101284.92;1656409;85;21070;-77
2022/06/29 01:56:58;;;;;;;5.25;4.75;;;;;;;14.01;66.84;101282.80;1646323;86;20963;-78
2022/06/29 01:59:25;;;;;;;5.43;4.40;;;;;;;14.02;66.92;101284.06;1640938;86;21522;-78
2022/06/29 02:01:51;;;;;;;4.05;3.75;;;;;;;13.97;66.94;101262.94;1641358;86;21062;-78
2022/06/29 02:04:19;;;;;;;3.80;3.50;;;;;;;14.06;66.92;101272.69;1632531;86;21133;-78
2022/06/29 02:06:45;;;;;;;4.30;3.90;;;;;;;14.05;66.94;101268.81;1656341;84;21072;-77
2022/06/29 02:09:11;;;;;;;4.40;4.10;;;;;;;14.06;66.97;101263.58;1671113;84;21075;-77
2022/06/29 02:11:40;;;;;;;4.42;3.95;;;;;;;14.02;66.89;101262.41;1667338;85;21104;-78
2022/06/29 02:14:07;;;;;;;4.08;3.77;;;;;;;14.01;67.03;101264.59;1664066;84;21092;-78
2022/06/29 02:16:33;;;;;;;4.40;4.00;;;;;;;14.00;66.99;101258.98;1673534;84;21064;-79
2022/06/29 02:18:59;;;;;;;4.77;3.83;;;;;;;13.99;66.99;101260.72;1692957;84;21140;-79
2022/06/29 02:21:25;;;;;;;3.33;3.13;;;;;;;14.01;67.00;101264.59;1670526;84;21064;-79
2022/06/29 02:23:52;;;;;;;3.63;3.20;;;;;;;13.96;66.97;101262.53;1674021;84;21100;-78
2022/06/29 02:26:18;;;;;;;3.90;3.42;;;;;;;13.94;67.00;101268.20;1671005;85;21096;-78
2022/06/29 02:28:44;;;;;;;3.70;3.23;;;;;;;13.86;67.01;101255.34;1669026;84;20921;-78
2022/06/29 02:36:41;;;;;;;3.42;3.15;;;;;;;13.85;67.26;101250.59;1671582;84;22096;-78
2022/06/29 02:39:14;;;;;;;3.70;3.40;;;;;;;13.87;67.10;101239.72;1686028;84;21047;-78
2022/06/29 02:41:40;;;;;;;4.00;3.70;;;;;;;13.84;67.15;101234.58;1667006;85;20988;-78
2022/06/29 02:44:06;;;;;;;4.78;4.37;;;;;;;13.84;67.26;101229.38;1666398;86;21093;-78
2022/06/29 02:46:33;;;;;;;4.03;3.73;;;;;;;13.84;67.13;101227.22;1680985;84;20898;-77
2022/06/29 02:48:59;;;;;;;3.00;2.70;;;;;;;13.72;67.11;101234.81;1677863;84;21073;-77
2022/06/29 02:51:25;;;;;;;5.08;3.20;;;;;;;13.67;67.27;101239.23;1666357;85;21468;-78
2022/06/29 02:53:51;;;;;;;3.20;2.20;;;;;;;13.62;67.16;101244.96;1671827;84;21155;-78
2022/06/29 02:56:18;;;;;;;3.63;2.40;;;;;;;13.54;67.29;101243.80;1674491;84;21077;-78
2022/06/29 02:58:44;;;;;;;3.37;3.17;;;;;;;13.54;67.29;101243.80;1666422;84;21509;-78
2022/06/29 03:01:10;;;;;;;5.10;3.22;;;;;;;13.59;67.46;101238.52;1669714;84;21072;-78
2022/06/29 03:03:36;;;;;;;3.37;3.13;;;;;;;13.63;67.47;101242.78;1679680;85;21069;-78
2022/06/29 03:06:02;;;;;;;3.87;3.40;;;;;;;13.52;67.11;101230.42;1671764;84;22261;-78
2022/06/29 03:08:29;;;;;;;3.65;3.35;;;;;;;13.66;67.50;101260.91;1673933;84;28184;-78
2022/06/29 03:10:55;;;;;;;4.63;3.40;;;;;;;13.73;67.50;101259.92;1673343;84;21600;-78
2022/06/29 03:13:21;;;;;;;4.50;4.10;;;;;;;13.73;67.43;101261.66;1666669;84;21132;-78
2022/06/29 03:15:46;;;;;;;4.53;4.13;;;;;;;13.78;67.59;101258.09;1689523;84;20886;-78
2022/06/29 03:18:12;;;;;;;4.80;4.40;;;;;;;13.84;67.62;101260.58;1667795;84;21101;-78
2022/06/29 03:20:38;;;;;;;4.27;3.97;;;;;;;13.89;67.67;101258.75;1667191;84;21009;-78
2022/06/29 03:23:05;;;;;;;5.47;3.90;;;;;;;13.89;67.64;101264.39;1683833;84;21479;-78
2022/06/29 03:25:31;;;;;;;6.83;4.60;;;;;;;13.92;67.72;101277.33;1682461;84;21339;-78
2022/06/29 03:27:57;;;;;;;6.07;4.83;;;;;;;13.98;67.72;101277.21;1659321;85;20964;-78
2022/06/29 03:30:23;;;;;;;7.97;5.37;;;;;;;14.01;67.75;101280.20;1668912;84;21500;-78
2022/06/29 03:32:58;;;;;;;8.88;6.62;;;;;;;14.02;67.75;101280.17;1661352;84;21064;-78
2022/06/29 03:35:24;;;;;;;14.97;6.47;;;;;;;14.07;67.82;101286.10;1656704;85;21610;-78
2022/06/29 03:37:50;;;;;;;7.20;6.50;;;;;;;14.11;67.87;101297.30;1650040;84;21378;-78
2022/06/29 03:40:17;;;;;;;10.05;7.83;;;;;;;14.18;67.91;101298.90;1655811;84;21544;-78
2022/06/29 03:42:43;;;;;;;13.83;8.20;;;;;;;14.20;67.96;101297.13;1655992;86;22776;-78
2022/06/29 03:45:10;;;;;;;14.23;8.67;;;;;;;14.24;68.07;101297.03;1658567;84;21009;-79
2022/06/29 03:47:36;;;;;;;13.32;8.10;;;;;;;14.28;68.13;101292.62;1657745;84;21080;-78
2022/06/29 03:50:03;;;;;;;12.27;8.03;;;;;;;14.31;68.17;101287.80;1663770;84;21092;-78
2022/06/29 03:52:29;;;;;;;11.55;7.55;;;;;;;14.40;68.30;101285.87;1665229;84;21104;-78
2022/06/29 03:54:55;;;;;;;14.17;8.77;;;;;;;14.52;68.39;101280.88;1671779;84;20918;-78
2022/06/29 03:57:21;;;;;;;13.93;7.87;;;;;;;14.66;68.42;101268.39;1666365;84;21116;-78
2022/06/29 03:59:47;;;;;;;12.37;8.17;;;;;;;14.75;68.40;101261.68;1662340;84;21140;-79
2022/06/29 04:02:13;;;;;;;13.40;9.20;;;;;;;14.81;68.48;101265.89;1659964;84;21384;-78
2022/06/29 04:04:39;;;;;;;9.03;8.23;;;;;;;14.93;68.47;101269.96;1669900;85;20903;-78
2022/06/29 04:07:05;;;;;;;10.00;9.10;;;;;;;15.01;68.57;101276.70;1666291;84;21054;-78
2022/06/29 04:09:31;;;;;;;8.60;7.97;;;;;;;15.13;68.58;101267.71;1663580;85;20993;-78
2022/06/29 04:11:58;;;;;;;8.73;7.93;;;;;;;15.20;68.63;101270.58;1652598;85;21121;-78
2022/06/29 04:14:28;;;;;;;8.03;7.42;;;;;;;15.34;68.77;101279.36;1648942;85;21073;-78
2022/06/29 04:16:57;;;;;;;10.45;7.03;;;;;;;15.57;68.88;101280.11;1649268;86;21078;-78
2022/06/29 04:19:25;;;;;;;7.97;7.37;;;;;;;15.77;68.87;101280.41;1648140;85;148153;-78
2022/06/29 04:21:54;;;;;;;8.18;7.47;;;;;;;15.90;68.85;101281.80;1648513;86;21104;-78
2022/06/29 04:24:22;;;;;;;7.95;7.35;;;;;;;16.04;68.89;101275.75;1651619;84;21073;-78
2022/06/29 04:26:48;;;;;;;7.90;7.30;;;;;;;16.19;68.89;101268.77;1657153;84;21084;-78
2022/06/29 04:29:27;;;;;;;7.72;7.12;;;;;;;16.32;68.88;101269.72;1652850;84;21108;-78
2022/06/29 04:31:54;;;;;;;8.00;7.37;;;;;;;16.39;68.82;101281.25;1626651;86;21096;-78
2022/06/29 04:34:20;;;;;;;8.63;7.90;;;;;;;16.48;68.93;101286.65;1671479;84;21074;-78
2022/06/29 04:36:46;;;;;;;9.20;6.73;;;;;;;16.59;68.94;101278.50;1672725;84;21101;-78
2022/06/29 04:39:12;;;;;;;7.83;7.15;;;;;;;16.61;68.78;101280.61;1668608;84;21117;-78
2022/06/29 04:41:40;;;;;;;7.83;6.65;;;;;;;16.58;68.95;101269.81;1663759;84;21504;-78
2022/06/29 04:44:06;;;;;;;7.87;7.27;;;;;;;16.65;68.99;101271.78;1668770;84;20992;-78
2022/06/29 04:46:32;;;;;;;8.13;7.00;;;;;;;16.70;68.98;101274.66;1669822;84;22601;-78
2022/06/29 04:49:01;;;;;;;9.43;7.03;;;;;;;16.76;68.98;101268.39;1660152;84;21133;-78
2022/06/29 04:51:30;;;;;;;8.98;8.13;;;;;;;16.78;68.92;101276.58;1625337;86;20958;-78
2022/06/29 04:53:58;;;;;;;10.15;7.45;;;;;;;16.73;68.85;101269.79;1670184;85;20902;-78
2022/06/29 04:56:29;;;;;;;7.87;7.08;;;;;;;16.69;69.04;101280.78;1664785;84;20940;-78
2022/06/29 04:58:57;;;;;;;9.60;7.37;;;;;;;16.77;69.28;101280.09;1672591;84;20904;-78
2022/06/29 05:01:25;;;;;;;7.75;7.10;;;;;;;16.96;69.33;101280.38;1665384;84;20978;-78
2022/06/29 05:03:53;;;;;;;10.35;7.83;;;;;;;17.17;69.34;101275.74;1657061;84;21010;-78
2022/06/29 05:06:20;;;;;;;8.15;7.03;;;;;;;17.47;69.41;101283.48;1660113;84;21066;-78
2022/06/29 05:08:47;;;;;;;;;;;;;;;17.85;69.40;101291.31;1652554;84;21069;-78
2022/06/29 05:11:14;;;;;;;7.65;7.08;;;;;;;18.27;69.45;101288.03;1644305;85;20523;-78
2022/06/29 05:13:43;;;;;;;8.20;7.53;;;;;;;18.68;69.19;101288.67;1648385;83;21062;-78
2022/06/29 05:16:10;;;;;;;8.53;6.53;;;;;;;19.08;69.02;101294.47;1641438;85;21014;-78
2022/06/29 05:18:37;;;;;;;6.95;6.12;;;;;;;19.42;68.97;101287.81;1654393;84;21104;-78
2022/06/29 05:21:04;;;;;;;8.05;6.20;;;;;;;19.87;68.95;101278.44;1657452;85;21044;-78
2022/06/29 05:23:31;;;;;;;6.22;5.70;;;;;;;20.31;68.72;101272.48;1626788;85;21064;-78
2022/06/29 05:25:58;;;;;;;7.33;6.03;;;;;;;20.69;68.42;101269.41;1664168;84;21044;-78
2022/06/29 05:28:25;;;;;;;7.40;5.17;;;;;;;21.06;68.61;101264.98;1659581;84;21523;-78
2022/06/29 05:30:52;;;;;;;7.28;5.15;;;;;;;21.52;68.39;101270.58;1667983;84;21048;-78
2022/06/29 05:33:19;;;;;;;9.53;5.05;;;;;;;22.01;68.09;101275.01;1659376;84;21083;-78
2022/06/29 05:35:45;;;;;;;5.28;4.60;;;;;;;22.25;67.89;101275.95;1653237;84;21455;-78
2022/06/29 05:38:12;;;;;;;10.45;4.42;;;;;;;22.63;67.80;101280.41;1637148;85;21105;-78
2022/06/29 05:40:38;;;;;;;9.43;4.47;;;;;;;23.10;67.71;101273.30;1646713;85;21085;-78
2022/06/29 05:43:04;;;;;;;7.33;4.78;;;;;;;23.63;67.55;101270.63;1641719;85;21522;-78
2022/06/29 05:45:30;;;;;;;5.55;3.90;;;;;;;24.03;67.07;101262.90;1638087;85;21339;-78
2022/06/29 05:47:57;;;;;;;5.05;3.70;;;;;;;24.14;66.47;101259.59;1647297;85;21085;-78
2022/06/29 05:50:24;;;;;;;3.83;3.20;;;;;;;24.09;66.41;101257.23;1644532;85;21081;-78
2022/06/29 05:52:54;;;;;;;4.53;2.95;;;;;;;24.07;66.26;101253.36;1646126;85;21612;-78
2022/06/29 05:55:21;;;;;;;5.20;3.33;;;;;;;23.93;66.01;101264.41;1642098;85;21060;-78
2022/06/29 05:57:47;;;;;;;4.50;3.10;;;;;;;23.72;65.90;101259.52;1645952;85;21090;-78
2022/06/29 06:00:14;;;;;;;4.05;2.52;;;;;;;23.56;65.76;101258.73;1641567;85;21077;-78
2022/06/29 06:02:40;;;;;;;6.33;2.90;;;;;;;23.39;65.67;101266.80;1648246;85;21338;-78
2022/06/29 06:05:08;;;;;;;5.15;2.92;;;;;;;23.23;65.49;101273.92;1647218;85;21077;-78
2022/06/29 06:07:35;;;;;;;9.05;3.00;;;;;;;22.86;65.05;101273.89;1600249;86;21400;-78
2022/06/29 06:10:02;;;;;;;4.97;2.70;;;;;;;22.57;65.15;101278.12;1632074;86;20986;-78
2022/06/29 06:12:31;;;;;;;6.12;2.92;;;;;;;22.36;65.19;101280.99;1616155;86;20985;-78
2022/06/29 06:14:59;;;;;;;5.80;2.95;;;;;;;22.29;65.09;101272.22;1612142;87;20969;-78
2022/06/29 06:17:26;;;;;;;5.72;2.90;;;;;;;22.20;64.87;101272.71;1615076;87;20926;-78
2022/06/29 06:19:58;;;;;;;7.85;2.90;;;;;;;22.12;64.77;101267.85;1625172;87;20970;-78
2022/06/29 06:22:24;;;;;;;5.30;2.90;;;;;;;22.01;64.64;101274.13;1633884;86;20962;-78
2022/06/29 06:24:51;;;;;;;5.75;3.27;;;;;;;21.94;64.52;101274.06;1627658;86;21009;-78
2022/06/29 06:27:17;;;;;;;4.20;2.72;;;;;;;21.83;64.30;101269.39;1615658;86;21081;-78
2022/06/29 06:29:45;;;;;;;9.28;2.50;;;;;;;21.70;64.25;101263.06;1626433;86;21405;-77
2022/06/29 06:32:15;;;;;;;3.67;2.42;;;;;;;21.63;64.24;101269.11;1621027;86;21412;-77
2022/06/29 06:34:42;;;;;;;4.35;2.90;;;;;;;21.66;64.18;101272.89;1624983;86;21073;-77
2022/06/29 06:37:08;;;;;;;5.10;2.87;;;;;;;21.68;64.11;101268.41;1633687;86;25248;-74
2022/06/29 06:41:21;;;;;;;4.37;2.52;;;;;;;21.74;63.96;101259.34;1637263;86;21099;-74
2022/06/29 06:42:10;;;;;;;5.95;2.60;;;;;;;21.75;63.74;101258.41;1632614;86;21132;-77
2022/06/29 06:44:36;;;;;;;7.17;3.67;;;;;;;21.64;63.65;101255.02;1631604;86;21377;-78
2022/06/29 06:47:02;;;;;;;7.72;3.90;;;;;;;21.64;63.75;101255.02;1617878;86;21065;-79
2022/06/29 06:49:29;;;;;;;7.25;2.72;;;;;;;21.76;63.67;101245.62;1614863;86;21129;-83
2022/06/29 06:51:56;;;;;;;5.40;2.20;;;;;;;21.80;63.38;101245.86;1627864;86;21604;-78
2022/06/29 06:54:22;;;;;;;6.53;2.80;;;;;;;21.78;63.36;101250.34;1624460;86;21537;-79
2022/06/29 06:56:49;;;;;;;4.08;2.10;;;;;;;21.74;63.29;101245.71;1628484;86;21401;-78
2022/06/29 06:59:15;;;;;;;5.72;2.95;;;;;;;21.73;63.22;101253.69;1632096;86;21735;-78
2022/06/29 07:01:41;;;;;;;3.70;2.75;;;;;;;21.66;62.97;101250.52;1636639;86;21016;-76
2022/06/29 07:04:07;;;;;;;6.25;2.52;;;;;;;21.69;63.18;101251.67;1621900;85;21447;-78
2022/06/29 07:06:34;;;;;;;7.43;2.37;;;;;;;21.82;63.08;101248.41;1604633;87;21141;-76
2022/06/29 07:09:00;;;;;;;4.95;2.60;;;;;;;21.98;62.96;101235.63;1627609;85;21844;-76
2022/06/29 07:11:26;;;;;;;4.70;2.33;;;;;;;22.09;62.84;101228.04;1622674;86;21069;-72
2022/06/29 07:13:52;;;;;;;8.18;2.00;;;;;;;22.36;62.92;101222.17;1636603;86;21067;-72
2022/06/29 07:16:19;;;;;;;3.37;2.25;;;;;;;22.73;62.93;101211.73;1636838;86;21425;-72
2022/06/29 07:18:45;;;;;;;9.80;2.13;;;;;;;23.15;62.13;101218.95;1634171;86;21399;-72
2022/06/29 07:21:12;;;;;;;3.98;2.05;;;;;;;23.15;62.13;101218.95;1630270;86;21419;-72
2022/06/29 07:23:38;;;;;;;5.75;2.37;;;;;;;23.11;62.14;101226.20;1633841;86;21147;-72
2022/06/29 07:26:05;;;;;;;3.40;1.75;;;;;;;23.09;62.04;101223.27;1632147;86;21085;-72
2022/06/29 07:28:32;;;;;;;5.58;1.95;;;;;;;23.08;61.85;101225.06;1614993;86;20974;-72
2022/06/29 07:30:59;;;;;;;6.35;2.00;;;;;;;22.97;61.89;101216.06;1619497;86;22291;-72
2022/06/29 07:33:25;;;;;;;5.87;2.20;;;;;;;22.81;61.81;101212.17;1635610;86;21021;-72
2022/06/29 07:35:51;;;;;;;4.17;1.87;;;;;;;22.72;61.79;101206.08;1635781;86;21136;-72
2022/06/29 07:38:19;;;;;;;3.05;1.80;;;;;;;22.59;61.69;101207.70;1627350;86;21094;-72
2022/06/29 07:40:45;;;;;;;4.17;2.00;;;;;;;22.49;61.63;101202.10;1630354;86;21654;-72
2022/06/29 07:43:11;;;;;;;2.75;1.50;;;;;;;22.37;61.60;101199.69;1625670;86;21541;-72
2022/06/29 07:45:37;;;;;;;3.70;1.85;;;;;;;22.36;61.63;101198.45;1630743;86;21531;-72
2022/06/29 07:48:05;;;;;;;8.88;2.08;;;;;;;22.32;61.50;101202.22;1633373;86;21040;-72
2022/06/29 07:50:31;;;;;;;2.35;1.75;;;;;;;22.32;61.50;101208.34;1629244;86;21467;-72
2022/06/29 07:52:57;;;;;;;2.47;1.72;;;;;;;22.35;61.39;101206.86;1634478;86;21078;-72
2022/06/29 07:55:24;;;;;;;5.97;1.95;;;;;;;22.36;61.28;101202.41;1633270;86;21038;-72
2022/06/29 07:57:50;;;;;;;4.90;2.08;;;;;;;22.31;61.10;101198.73;1636585;86;21122;-71
2022/06/29 08:00:17;;;;;;;7.60;2.00;;;;;;;22.30;61.10;101196.19;1628712;86;21072;-72
2022/06/29 08:02:43;;;;;;;12.33;2.42;;;;;;;22.34;61.07;101193.30;1632301;86;21578;-77
2022/06/29 08:05:10;;;;;;;4.05;2.50;;;;;;;22.39;60.97;101189.91;1636336;86;20974;-82
2022/06/29 08:07:36;;;;;;;3.47;2.30;;;;;;;22.44;60.85;101188.33;1640943;84;20988;-82
2022/06/29 08:10:05;;;;;;;7.58;2.70;;;;;;;22.47;60.84;101197.39;1664692;84;20917;-82
2022/06/29 08:12:31;;;;;;;4.42;2.37;;;;;;;22.50;60.86;101209.07;1621281;86;20963;-82
2022/06/29 08:14:58;;;;;;;6.33;2.45;;;;;;;22.58;60.81;101207.33;1655232;85;20930;-83
2022/06/29 08:17:25;;;;;;;3.65;2.35;;;;;;;22.63;60.67;101211.88;1633034;86;21064;-77
2022/06/29 08:19:52;;;;;;;4.17;2.10;;;;;;;22.66;60.62;101205.95;1635911;86;21117;-77
2022/06/29 08:22:20;;;;;;;6.00;2.42;;;;;;;22.72;60.57;101202.13;1636711;86;20982;-77
2022/06/29 08:24:46;;;;;;;;;;;;;;;22.73;60.52;101208.62;1637745;86;21138;-75
2022/06/29 08:27:12;;;;;;;5.03;2.70;;;;;;;22.71;60.13;101205.23;1630736;86;20170;-80
2022/06/29 08:29:38;;;;;;;5.85;2.98;;;;;;;22.67;60.51;101209.44;1632775;86;21556;-82
2022/06/29 08:32:05;;;;;;;6.40;2.80;;;;;;;22.70;60.51;101202.68;1636595;86;21418;-79
2022/06/29 08:34:38;;;;;;;6.65;2.95;;;;;;;22.65;60.28;101206.05;1630450;86;21636;-79
2022/06/29 08:37:02;;;;;;;3.65;2.10;;;;;;;22.66;60.42;101210.37;1625522;86;21037;-79
2022/06/29 08:39:28;;;;;;;7.70;2.87;;;;;;;22.77;60.42;101201.39;1626502;86;21089;-79
2022/06/29 08:42:00;;;;;;;8.27;2.60;;;;;;;22.92;60.27;101199.19;1633708;86;20935;-79
2022/06/29 08:44:26;;;;;;;3.17;2.00;;;;;;;23.00;60.20;101190.83;1637118;86;21076;-80
2022/06/29 08:46:52;;;;;;;7.78;2.70;;;;;;;23.07;60.11;101190.85;1627506;87;21090;-80
2022/06/29 08:49:18;;;;;;;4.83;2.33;;;;;;;23.11;59.96;101190.58;1644379;86;21078;-80
2022/06/29 08:51:45;;;;;;;8.27;2.30;;;;;;;23.21;59.94;101186.93;1637542;86;20938;-80
2022/06/29 08:54:15;;;;;;;5.70;2.30;;;;;;;23.24;59.80;101184.58;1645211;85;21069;-80
2022/06/29 08:56:44;;;;;;;4.92;2.30;;;;;;;23.34;59.83;101187.90;1645329;86;21054;-80
2022/06/29 08:59:12;;;;;;;3.77;1.90;;;;;;;23.44;59.69;101192.13;1645213;86;21065;-80
2022/06/29 09:01:38;;;;;;;5.42;2.12;;;;;;;23.56;59.64;101183.97;1634561;86;21037;-80
2022/06/29 09:04:07;;;;;;;5.92;1.90;;;;;;;23.62;59.47;101184.91;1635712;86;21577;-79
2022/06/29 09:06:34;;;;;;;7.05;2.10;;;;;;;23.60;59.10;101191.61;1627457;86;20987;-80
2022/06/29 09:09:00;;;;;;;3.92;1.60;;;;;;;23.58;59.15;101188.68;1643722;84;21545;-80
2022/06/29 09:11:29;;;;;;;6.57;1.93;;;;;;;23.62;59.14;101194.16;1654426;84;21136;-80
2022/06/29 09:14:13;;;;;;;7.62;2.10;;;;;;;23.64;59.09;101198.40;1670572;84;21099;-80
2022/06/29 09:17:01;;;;;;;4.20;2.22;;;;;;;23.72;59.02;101202.73;1626197;86;21518;-81
2022/06/29 09:19:38;;;;;;;5.05;2.00;;;;;;;23.86;58.91;101201.04;1656036;84;20985;-81
2022/06/29 09:22:05;;;;;;;3.40;1.95;;;;;;;23.97;58.77;101200.72;1668108;84;21525;-82
2022/06/29 09:24:33;;;;;;;5.40;1.90;;;;;;;24.11;58.59;101199.85;1669724;84;21065;-82
2022/06/29 09:27:05;;;;;;;4.70;1.75;;;;;;;24.09;58.35;101203.06;1665744;84;21447;-81
2022/06/29 09:29:39;;;;;;;2.33;1.72;;;;;;;24.10;58.50;101202.97;1664256;84;20954;-82
2022/06/29 09:32:14;;;;;;;6.25;1.90;;;;;;;24.24;58.35;101201.25;1674081;84;21411;-83
2022/06/29 09:34:49;;;;;;;6.90;2.30;;;;;;;24.35;58.26;101203.61;1668762;84;20938;-79
2022/06/29 09:37:22;;;;;;;2.40;1.95;;;;;;;24.30;57.75;101195.60;1645464;84;21419;-79
2022/06/29 09:39:51;;;;;;;2.92;2.02;;;;;;;24.22;57.84;101194.73;1675054;84;21407;-79
2022/06/29 09:42:24;;;;;;;2.77;2.00;;;;;;;24.27;57.85;101188.72;1670855;84;21474;-79
2022/06/29 09:44:53;;;;;;;2.98;2.00;;;;;;;24.39;57.76;101191.05;1668242;84;21440;-79
2022/06/29 09:47:21;;;;;;;5.83;1.65;;;;;;;24.31;57.56;101163.78;1669618;84;20918;-79
2022/06/29 09:49:56;;;;;;;2.02;1.75;;;;;;;24.47;57.19;101164.09;1663161;84;21037;-79
2022/06/29 09:52:26;;;;;;;5.40;2.10;;;;;;;24.47;57.19;101164.09;1661770;84;21549;-78
2022/06/29 09:54:55;;;;;;;5.80;2.08;;;;;;;24.42;57.13;101147.23;1673196;84;21552;-77
2022/06/29 09:57:28;;;;;;;4.53;1.82;;;;;;;24.62;57.12;101178.48;1672931;84;21585;-76
2022/06/29 10:02:48;;;;;;;3.92;1.37;;;;;;;24.60;56.84;101161.86;1640481;84;21116;-76
2022/06/29 10:05:25;;;;;;;2.60;1.98;;;;;;;24.60;56.84;101161.86;1658756;84;21553;-77
2022/06/29 10:07:56;;;;;;;2.62;1.70;;;;;;;24.52;56.69;101161.52;1657484;84;21074;-77
2022/06/29 10:10:26;;;;;;;6.97;1.92;;;;;;;24.53;56.71;101164.53;1679415;83;21572;-77
2022/06/29 10:16:37;;;;;;;5.42;2.15;;;;;;;24.55;56.37;101158.67;1679788;83;21448;-77
2022/06/29 10:19:32;;;;;;;4.97;1.62;;;;;;;24.54;56.36;101157.45;1673439;83;21576;-77
2022/06/29 10:21:59;;;;;;;3.62;1.80;;;;;;;24.54;56.14;101150.36;1697132;83;21517;-77
2022/06/29 10:24:25;;;;;;;;;;;;;;;24.43;56.07;101145.78;1668697;84;20919;-77
2022/06/29 10:26:51;;;;;;;17.48;2.33;;;;;;;24.37;55.73;101156.78;1678671;83;20470;-77
2022/06/29 10:29:27;;;;;;;8.43;1.57;;;;;;;24.16;55.73;101140.95;1679950;84;21426;-77
2022/06/29 10:31:59;;;;;;;3.27;1.50;;;;;;;24.16;55.73;101140.95;1682165;83;21352;-77
2022/06/29 10:34:37;;;;;;;3.47;1.70;;;;;;;24.21;55.58;101161.33;1681768;84;21447;-77
2022/06/29 10:37:15;;;;;;;2.05;1.42;;;;;;;24.12;55.64;101158.42;1680965;84;21402;-77
2022/06/29 10:39:49;;;;;;;5.17;1.90;;;;;;;24.12;55.76;101160.59;1672823;84;21412;-77
2022/06/29 10:45:16;;;;;;;;;;;;;;;24.22;55.18;101155.09;1688082;84;21465;-77
2022/06/29 10:47:55;;;;;;;4.78;1.50;;;;;;;24.14;55.02;101152.56;1671081;84;20435;-77
2022/06/29 10:50:31;;;;;;;3.70;1.82;;;;;;;24.12;55.31;101156.63;1675128;84;21485;-77
2022/06/29 10:53:10;;;;;;;5.62;1.60;;;;;;;24.23;55.34;101151.51;1646353;85;20986;-77
2022/06/29 10:55:46;;;;;;;2.75;1.77;;;;;;;24.39;55.25;101147.43;1642436;85;21849;-77
2022/06/29 10:58:12;;;;;;;4.77;2.00;;;;;;;24.53;55.03;101142.05;1657929;85;20892;-77
2022/06/29 11:00:47;;;;;;;4.25;1.40;;;;;;;24.62;54.88;101141.92;1664848;84;21651;-77
2022/06/29 11:03:18;;;;;;;3.17;1.60;;;;;;;24.73;54.91;101138.95;1662233;85;21443;-77
2022/06/29 11:15:39;;;;;;;5.83;1.70;;;;;;;25.19;54.53;101123.92;1678745;84;20940;-77
2022/06/29 11:16:37;;;;;;;4.00;1.52;;;;;;;25.33;54.27;101122.50;1671851;84;21518;-77
2022/06/29 11:19:04;;;;;;;3.25;1.62;;;;;;;25.34;54.18;101123.34;1673184;84;20887;-77
2022/06/29 11:21:32;;;;;;;3.08;1.50;;;;;;;25.34;54.06;101124.19;1676463;85;21519;-77
2022/06/29 11:24:04;;;;;;;4.58;1.25;;;;;;;25.34;53.93;101110.95;1673967;84;21113;-77
2022/06/29 11:26:32;;;;;;;3.12;1.37;;;;;;;25.36;54.01;101103.75;1679349;83;20980;-77
2022/06/29 11:29:00;;;;;;;3.27;1.35;;;;;;;25.30;53.62;101072.41;1668720;85;21016;-77
2022/06/29 11:31:27;;;;;;;4.80;1.62;;;;;;;25.41;53.49;101094.16;1668656;85;21036;-77
2022/06/29 11:33:55;;;;;;;2.42;1.45;;;;;;;25.37;53.46;101086.91;1665887;83;21485;-77
2022/06/29 11:36:29;;;;;;;2.20;1.35;;;;;;;25.44;53.37;101079.86;1665733;84;21112;-77
2022/06/29 11:39:06;;;;;;;2.87;1.50;;;;;;;25.54;53.31;101088.81;1651744;84;21061;-77
2022/06/29 11:44:30;;;;;;;6.25;1.57;;;;;;;25.27;52.71;101059.86;1657756;84;21510;-78
2022/06/29 11:46:57;;;;;;;6.33;1.45;;;;;;;25.27;52.71;101059.86;1658792;84;20947;-78
2022/06/29 11:49:38;;;;;;;7.08;1.75;;;;;;;25.33;52.60;101075.32;1666785;84;21110;-78
2022/06/29 11:52:08;;;;;;;5.47;1.60;;;;;;;25.34;52.96;101061.13;1665190;84;21113;-78
2022/06/29 11:54:47;;;;;;;2.40;1.25;;;;;;;25.40;52.32;101061.54;1668697;84;20989;-78
2022/06/29 11:57:17;;;;;;;5.95;1.75;;;;;;;25.45;52.37;101056.39;1662698;84;21069;-78